createdAt,value
2018-07-13T00:01:12.562Z,77.20
2018-07-13T00:03:41.453Z,76.91
2018-07-13T00:06:10.402Z,76.67
2018-07-13T00:08:39.347Z,76.89
2018-07-13T00:11:08.331Z,77.36
2018-07-13T00:13:48.648Z,77.30
2018-07-13T00:16:17.602Z,76.93
2018-07-13T00:18:46.570Z,76.47
2018-07-13T00:21:15.591Z,76.82
2018-07-13T00:23:44.506Z,76.93
2018-07-13T00:26:13.488Z,77.10
2018-07-13T00:28:42.445Z,76.84
2018-07-13T00:31:11.397Z,76.32
2018-07-13T00:33:40.700Z,76.32
2018-07-13T00:36:09.673Z,76.39
2018-07-13T00:38:38.645Z,75.76
2018-07-13T00:41:07.639Z,76.44
2018-07-13T00:43:36.573Z,76.32
2018-07-13T00:46:05.553Z,77.11
2018-07-13T00:48:34.501Z,76.86
2018-07-13T00:51:03.520Z,76.22
2018-07-13T00:53:32.468Z,75.94
2018-07-13T00:56:01.400Z,75.56
2018-07-13T00:58:30.420Z,75.56
2018-07-13T01:00:59.390Z,76.26
2018-07-13T01:03:28.385Z,76.42
2018-07-13T01:05:57.338Z,76.57
2018-07-13T01:08:26.286Z,76.27
2018-07-13T01:10:55.263Z,76.10
2018-07-13T01:13:24.268Z,76.28
2018-07-13T01:15:56.150Z,76.02
2018-07-13T01:18:25.065Z,76.62
2018-07-13T01:20:54.055Z,76.98
2018-07-13T01:23:22.990Z,76.80
2018-07-13T01:25:51.967Z,76.82
2018-07-13T01:28:20.918Z,76.85
2018-07-13T01:30:49.905Z,76.66
2018-07-13T01:33:18.861Z,76.28
2018-07-13T01:35:47.778Z,76.25
2018-07-13T01:38:16.740Z,76.23
2018-07-13T01:40:45.677Z,76.39
2018-07-13T01:43:14.688Z,76.01
2018-07-13T01:45:43.679Z,75.70
2018-07-13T01:48:12.636Z,76.16
2018-07-13T01:50:41.570Z,76.33
2018-07-13T01:53:10.544Z,76.33
2018-07-13T01:55:39.565Z,76.20
2018-07-13T01:58:08.528Z,76.20
2018-07-13T02:00:37.492Z,76.03
2018-07-13T02:03:06.454Z,75.87
2018-07-13T02:05:35.452Z,75.37
2018-07-13T02:08:04.369Z,75.82
2018-07-13T02:10:33.352Z,76.06
2018-07-13T02:13:02.334Z,76.21
2018-07-13T02:15:31.320Z,76.28
2018-07-13T02:18:00.320Z,76.42
2018-07-13T02:20:29.252Z,75.99
2018-07-13T02:22:58.201Z,76.56
2018-07-13T02:25:27.218Z,76.35
2018-07-13T02:27:56.126Z,75.97
2018-07-13T02:30:25.062Z,75.57
2018-07-13T02:32:54.032Z,75.54
2018-07-13T02:35:23.035Z,76.03
2018-07-13T02:37:51.988Z,76.06
2018-07-13T02:40:20.924Z,75.93
2018-07-13T02:42:49.904Z,76.15
2018-07-13T02:45:18.809Z,75.91
2018-07-13T02:47:47.847Z,75.82
2018-07-13T02:50:16.772Z,75.37
2018-07-13T02:52:45.697Z,75.32
2018-07-13T02:55:14.703Z,75.39
2018-07-13T02:57:43.681Z,74.71
2018-07-13T03:00:12.741Z,74.49
2018-07-13T03:02:41.687Z,74.85
2018-07-13T03:05:10.642Z,75.11
2018-07-13T03:07:39.622Z,74.88
2018-07-13T03:10:08.604Z,74.18
2018-07-13T03:12:37.575Z,74.64
2018-07-13T03:15:06.745Z,75.44
2018-07-13T03:17:35.702Z,75.79
2018-07-13T03:20:04.690Z,75.68
2018-07-13T03:22:33.732Z,75.45
2018-07-13T03:25:09.167Z,75.95
2018-07-13T03:27:38.153Z,75.21
2018-07-13T03:30:07.093Z,75.57
2018-07-13T03:32:36.087Z,75.95
2018-07-13T03:35:05.038Z,75.48
2018-07-13T03:37:34.003Z,75.24
2018-07-13T03:40:02.963Z,74.49
2018-07-13T03:42:32.021Z,74.15
2018-07-13T03:45:00.934Z,74.21
2018-07-13T03:47:29.881Z,74.97
2018-07-13T03:49:58.818Z,75.20
2018-07-13T03:52:27.823Z,75.22
2018-07-13T03:54:56.781Z,75.19
2018-07-13T03:57:25.775Z,74.84
2018-07-13T03:59:54.773Z,74.59
2018-07-13T04:02:23.751Z,74.64
2018-07-13T04:04:52.793Z,74.94
2018-07-13T04:07:21.713Z,74.99
2018-07-13T04:09:50.677Z,74.85
2018-07-13T04:12:19.635Z,74.87
2018-07-13T04:14:48.658Z,75.07
2018-07-13T04:17:17.583Z,74.56
2018-07-13T04:19:49.436Z,74.72
2018-07-13T04:22:18.409Z,75.47
2018-07-13T04:24:47.397Z,75.25
2018-07-13T04:27:16.493Z,75.46
2018-07-13T04:29:46.051Z,75.65
2018-07-13T04:32:15.037Z,75.33
2018-07-13T04:34:43.961Z,75.00
2018-07-13T04:37:12.950Z,74.69
2018-07-13T04:39:41.875Z,75.14
2018-07-13T04:42:10.925Z,75.52
2018-07-13T04:44:39.864Z,75.65
2018-07-13T04:47:08.858Z,75.99
2018-07-13T04:49:38.056Z,75.82
2018-07-13T04:52:07.025Z,76.10
2018-07-13T04:54:36.005Z,75.89
2018-07-13T04:57:04.941Z,76.31
2018-07-13T04:59:34.053Z,76.75
2018-07-13T05:02:03.113Z,76.58
2018-07-13T05:04:32.110Z,76.47
2018-07-13T05:07:01.107Z,76.42
2018-07-13T05:09:30.085Z,76.39
2018-07-13T05:11:59.068Z,76.22
2018-07-13T05:14:28.070Z,75.92
2018-07-13T05:16:57.086Z,76.64
2018-07-13T05:19:26.000Z,77.02
2018-07-13T05:21:54.979Z,77.07
2018-07-13T05:24:23.947Z,77.22
2018-07-13T05:26:52.928Z,76.74
2018-07-13T05:29:21.898Z,76.35
2018-07-13T05:31:50.947Z,75.88
2018-07-13T05:34:20.155Z,76.01
2018-07-13T05:36:49.143Z,75.71
2018-07-13T05:39:18.185Z,76.00
2018-07-13T05:41:47.200Z,76.12
2018-07-13T05:44:16.195Z,75.58
2018-07-13T05:46:45.241Z,75.20
2018-07-13T05:49:14.293Z,75.25
2018-07-13T05:51:43.345Z,75.40
2018-07-13T05:54:13.183Z,75.55
2018-07-13T05:56:42.161Z,75.32
2018-07-13T05:59:11.195Z,75.32
2018-07-13T06:01:40.209Z,75.11
2018-07-13T06:04:09.434Z,75.05
2018-07-13T06:06:38.431Z,74.99
2018-07-13T06:09:09.419Z,74.58
2018-07-13T06:11:38.606Z,74.28
2018-07-13T06:14:07.849Z,74.30
2018-07-13T06:16:36.792Z,73.76
2018-07-13T06:19:05.809Z,73.57
2018-07-13T06:21:34.741Z,73.29
2018-07-13T06:24:03.982Z,74.04
2018-07-13T06:26:33.009Z,73.67
2018-07-13T06:29:01.952Z,72.65
2018-07-13T06:31:31.039Z,72.58
2018-07-13T06:33:59.883Z,72.61
2018-07-13T06:36:28.848Z,71.11
2018-07-13T06:38:57.807Z,70.23
2018-07-13T06:41:26.808Z,69.77
2018-07-13T06:43:55.859Z,69.51
2018-07-13T06:46:24.808Z,69.93
2018-07-13T06:48:53.758Z,69.09
2018-07-13T06:51:22.771Z,68.59
2018-07-13T06:53:51.853Z,67.84
2018-07-13T06:56:20.811Z,66.70
2018-07-13T06:59:01.022Z,63.24
2018-07-13T07:01:29.994Z,63.37
2018-07-13T07:04:32.503Z,62.90
2018-07-13T07:07:03.388Z,62.30
2018-07-13T07:09:32.360Z,61.51
2018-07-13T07:13:09.062Z,59.49
2018-07-13T07:15:38.488Z,58.80
2018-07-13T07:18:07.725Z,59.04
2018-07-13T07:20:36.751Z,60.01
2018-07-13T07:23:05.763Z,61.05
2018-07-13T07:25:34.850Z,61.48
2018-07-13T07:28:03.863Z,59.57
2018-07-13T07:30:32.846Z,58.34
2018-07-13T07:33:01.793Z,56.82
2018-07-13T07:35:30.751Z,55.84
2018-07-13T07:37:59.745Z,56.53
2018-07-13T07:40:28.737Z,58.46
2018-07-13T07:42:57.789Z,59.48
2018-07-13T07:45:26.864Z,59.34
2018-07-13T07:47:55.921Z,60.17
2018-07-13T07:50:25.085Z,60.66
2018-07-13T07:52:54.122Z,60.23
2018-07-13T07:55:23.124Z,61.02
2018-07-13T07:57:52.120Z,61.06
2018-07-13T08:00:21.108Z,60.19
2018-07-13T08:02:50.065Z,59.96
2018-07-13T08:05:19.130Z,59.51
2018-07-13T08:07:48.101Z,60.02
2018-07-13T08:10:17.477Z,60.31
2018-07-13T08:12:46.549Z,58.71
2018-07-13T08:15:15.643Z,57.61
2018-07-13T08:17:44.565Z,57.00
2018-07-13T08:20:18.269Z,56.20
2018-07-13T08:22:55.925Z,55.95
2018-07-13T08:25:25.808Z,56.54
2018-07-13T08:27:57.527Z,56.19
2018-07-13T08:30:31.826Z,56.49
2018-07-13T08:33:00.822Z,56.55
2018-07-13T08:35:29.779Z,56.68
2018-07-13T08:37:58.691Z,57.41
2018-07-13T08:40:27.631Z,56.78
2018-07-13T08:42:56.753Z,56.21
2018-07-13T08:45:25.836Z,56.08
2018-07-13T08:47:59.007Z,56.48
2018-07-13T08:50:28.436Z,56.20
2018-07-13T08:52:58.133Z,55.80
2018-07-13T08:55:27.143Z,56.22
2018-07-13T08:57:56.490Z,55.73
2018-07-13T09:00:25.532Z,56.12
2018-07-13T09:02:54.489Z,55.65
2018-07-13T09:05:23.440Z,57.81
2018-07-13T09:07:52.536Z,58.01
2018-07-13T09:10:21.588Z,57.56
2018-07-13T09:12:50.604Z,57.36
2018-07-13T09:15:19.557Z,56.93
2018-07-13T09:17:48.528Z,56.87
2018-07-13T09:20:17.541Z,56.22
2018-07-13T09:22:46.556Z,55.55
2018-07-13T09:25:15.480Z,55.95
2018-07-13T09:27:44.527Z,56.26
2018-07-13T09:30:13.453Z,56.36
2018-07-13T09:32:42.406Z,55.56
2018-07-13T09:35:11.412Z,56.73
2018-07-13T09:37:40.432Z,56.82
2018-07-13T09:40:09.419Z,55.97
2018-07-13T09:42:38.450Z,56.13
2018-07-13T09:45:07.554Z,56.47
2018-07-13T09:47:36.869Z,55.15
2018-07-13T09:50:06.020Z,55.67
2018-07-13T09:52:35.028Z,55.56
2018-07-13T09:55:03.960Z,55.80
2018-07-13T09:57:32.947Z,55.91
2018-07-13T10:00:01.923Z,56.84
2018-07-13T10:02:30.856Z,55.62
2018-07-13T10:04:59.908Z,55.59
2018-07-13T10:07:29.004Z,53.81
2018-07-13T10:09:58.017Z,54.37
2018-07-13T10:12:26.999Z,54.36
2018-07-13T10:14:56.060Z,53.51
2018-07-13T10:17:25.235Z,54.21
2018-07-13T10:19:54.184Z,55.70
2018-07-13T10:22:29.160Z,56.11
2018-07-13T10:25:00.044Z,55.64
2018-07-13T10:27:33.419Z,55.00
2018-07-13T10:30:04.508Z,53.99
2018-07-13T10:32:33.940Z,53.35
2018-07-13T10:35:04.640Z,53.26
2018-07-13T10:37:33.894Z,52.34
2018-07-13T10:40:02.846Z,52.89
2018-07-13T10:42:31.819Z,52.66
2018-07-13T10:45:00.854Z,52.01
2018-07-13T10:47:29.853Z,51.73
2018-07-13T10:49:58.750Z,51.03
2018-07-13T10:52:27.732Z,51.76
2018-07-13T10:54:56.760Z,52.35
2018-07-13T10:57:25.888Z,52.94
2018-07-13T10:59:54.822Z,53.50
2018-07-13T11:02:23.741Z,53.64
2018-07-13T11:04:52.709Z,54.06
2018-07-13T11:07:21.592Z,53.86
2018-07-13T11:09:50.777Z,53.82
2018-07-13T11:12:19.706Z,53.84
2018-07-13T11:14:48.621Z,53.07
2018-07-13T11:17:17.592Z,52.07
2018-07-13T11:19:46.704Z,52.63
2018-07-13T11:22:15.723Z,52.05
2018-07-13T11:24:44.637Z,51.13
2018-07-13T11:27:13.719Z,51.91
2018-07-13T11:29:42.804Z,50.90
2018-07-13T11:32:17.283Z,51.10
2018-07-13T11:34:49.138Z,52.11
2018-07-13T11:37:18.170Z,52.10
2018-07-13T11:39:47.209Z,51.47
2018-07-13T11:42:16.173Z,51.18
2018-07-13T11:44:45.087Z,51.44
2018-07-13T11:47:14.018Z,50.76
2018-07-13T11:49:42.915Z,50.95
2018-07-13T11:52:11.917Z,50.55
2018-07-13T11:54:40.767Z,50.82
2018-07-13T11:57:09.689Z,51.01
2018-07-13T11:59:38.649Z,50.49
2018-07-13T12:02:07.596Z,51.24
2018-07-13T12:04:36.669Z,51.26
2018-07-13T12:07:05.870Z,51.53
2018-07-13T12:09:34.766Z,51.04
2018-07-13T12:12:03.683Z,51.22
2018-07-13T12:14:39.252Z,51.28
2018-07-13T12:17:08.262Z,51.36
2018-07-13T12:19:37.268Z,50.90
2018-07-13T12:22:06.317Z,51.06
2018-07-13T12:24:35.243Z,50.13
2018-07-13T12:27:04.244Z,50.34
2018-07-13T12:29:33.167Z,50.45
2018-07-13T12:32:02.137Z,51.28
2018-07-13T12:34:31.092Z,50.21
2018-07-13T12:37:00.068Z,50.69
2018-07-13T12:39:28.980Z,52.73
2018-07-13T12:41:57.948Z,51.44
2018-07-13T12:44:26.931Z,52.71
2018-07-13T12:46:56.000Z,53.26
2018-07-13T12:49:24.932Z,53.30
2018-07-13T12:51:54.012Z,54.18
2018-07-13T12:54:23.026Z,54.79
2018-07-13T12:56:51.929Z,54.40
2018-07-13T12:59:20.919Z,54.65
2018-07-13T13:01:49.915Z,54.47
2018-07-13T13:04:18.869Z,55.32
2018-07-13T13:06:47.865Z,55.70
2018-07-13T13:09:16.897Z,55.06
2018-07-13T13:11:45.994Z,54.79
2018-07-13T13:14:14.985Z,55.21
2018-07-13T13:16:44.053Z,54.81
2018-07-13T13:19:12.974Z,55.01
2018-07-13T13:21:42.180Z,54.81
2018-07-13T13:24:11.096Z,54.47
2018-07-13T13:26:40.155Z,54.09
2018-07-13T13:29:09.250Z,53.96
2018-07-13T13:31:38.193Z,54.42
2018-07-13T13:34:07.630Z,54.42
2018-07-13T13:36:36.695Z,55.17
2018-07-13T13:39:05.800Z,54.87
2018-07-13T13:41:34.824Z,54.86
2018-07-13T13:44:03.818Z,55.73
2018-07-13T13:46:32.869Z,56.29
2018-07-13T13:49:01.914Z,55.89
2018-07-13T13:51:30.866Z,55.79
2018-07-13T13:53:59.858Z,55.05
2018-07-13T13:56:28.865Z,55.57
2018-07-13T13:58:57.854Z,56.00
2018-07-13T14:01:26.831Z,56.12
2018-07-13T14:03:55.843Z,56.33
2018-07-13T14:06:25.046Z,55.88
2018-07-13T14:08:54.043Z,56.01
2018-07-13T14:11:22.921Z,56.16
2018-07-13T14:13:51.867Z,56.33
2018-07-13T14:16:20.855Z,56.17
2018-07-13T14:18:49.825Z,55.86
2018-07-13T14:21:18.804Z,55.72
2018-07-13T14:23:47.783Z,55.22
2018-07-13T14:26:16.775Z,54.77
2018-07-13T14:28:45.723Z,54.88
2018-07-13T14:31:14.625Z,54.86
2018-07-13T14:33:43.639Z,54.32
2018-07-13T14:36:12.564Z,54.45
2018-07-13T14:38:41.632Z,55.47
2018-07-13T14:41:10.660Z,55.10
2018-07-13T14:43:39.697Z,54.89
2018-07-13T14:46:08.853Z,54.95
2018-07-13T14:48:37.775Z,54.92
2018-07-13T14:51:06.758Z,55.47
2018-07-13T14:53:35.696Z,55.27
2018-07-13T14:56:04.727Z,55.21
2018-07-13T14:58:33.691Z,55.34
2018-07-13T15:01:03.718Z,55.73
2018-07-13T15:03:32.691Z,55.01
2018-07-13T15:06:01.793Z,54.78
2018-07-13T15:08:30.591Z,54.98
2018-07-13T15:10:59.558Z,55.17
2018-07-13T15:13:28.618Z,55.67
2018-07-13T15:15:57.590Z,55.40
2018-07-13T15:18:26.559Z,56.24
2018-07-13T15:20:55.542Z,55.36
2018-07-13T15:23:24.526Z,55.50
2018-07-13T15:25:53.449Z,54.99
2018-07-13T15:28:22.544Z,55.07
2018-07-13T15:30:51.489Z,55.06
2018-07-13T15:33:20.437Z,54.92
2018-07-13T15:35:49.396Z,54.65
2018-07-13T15:38:18.331Z,54.75
2018-07-13T15:40:47.506Z,53.76
2018-07-13T15:43:16.572Z,54.76
2018-07-13T15:45:45.484Z,54.63
2018-07-13T15:48:14.381Z,55.20
2018-07-13T15:50:43.315Z,55.16
2018-07-13T15:53:12.255Z,55.01
2018-07-13T15:55:46.450Z,55.01
2018-07-13T15:58:15.513Z,54.62
2018-07-13T16:00:44.437Z,54.03
2018-07-13T16:03:14.358Z,54.77
2018-07-13T16:05:43.354Z,55.00
2018-07-13T16:08:12.345Z,54.97
2018-07-13T16:10:41.278Z,55.08
2018-07-13T16:13:10.380Z,55.23
2018-07-13T16:15:39.401Z,54.72
2018-07-13T16:18:08.415Z,55.38
2018-07-13T16:20:37.468Z,55.07
2018-07-13T16:23:06.451Z,56.22
2018-07-13T16:25:35.341Z,54.84
2018-07-13T16:28:04.248Z,54.40
2018-07-13T16:30:33.180Z,55.04
2018-07-13T16:33:02.187Z,55.01
2018-07-13T16:35:31.296Z,54.45
2018-07-13T16:38:00.212Z,55.03
2018-07-13T16:40:29.111Z,55.39
2018-07-13T16:42:58.055Z,54.92
2018-07-13T16:45:27.006Z,54.50
2018-07-13T16:47:56.046Z,54.67
2018-07-13T16:50:25.002Z,55.03
2018-07-13T16:52:53.922Z,55.12
2018-07-13T16:55:22.996Z,54.63
2018-07-13T16:57:51.880Z,54.21
2018-07-13T17:00:20.868Z,54.04
2018-07-13T17:02:49.857Z,53.15
2018-07-13T17:05:18.784Z,53.96
2018-07-13T17:07:47.697Z,53.87
2018-07-13T17:10:16.660Z,54.18
2018-07-13T17:12:45.600Z,54.36
2018-07-13T17:15:14.608Z,53.95
2018-07-13T17:17:43.564Z,54.23
2018-07-13T17:20:12.651Z,54.22
2018-07-13T17:22:41.586Z,54.37
2018-07-13T17:25:10.512Z,55.02
2018-07-13T17:27:39.420Z,55.05
2018-07-13T17:30:09.590Z,54.51
2018-07-13T17:32:38.590Z,55.48
2018-07-13T17:35:07.794Z,55.11
2018-07-13T17:37:36.852Z,54.56
2018-07-13T17:40:05.834Z,54.36
2018-07-13T17:42:34.902Z,54.62
2018-07-13T17:45:03.812Z,54.01
2018-07-13T17:47:32.887Z,54.21
2018-07-13T17:50:02.104Z,55.46
2018-07-13T17:52:31.241Z,55.31
2018-07-13T17:55:00.341Z,56.33
2018-07-13T17:57:29.310Z,57.09
2018-07-13T17:59:58.272Z,57.19
2018-07-13T18:02:27.340Z,57.95
2018-07-13T18:04:56.254Z,57.25
2018-07-13T18:07:25.229Z,57.38
2018-07-13T18:09:54.141Z,57.74
2018-07-13T18:12:23.169Z,58.13
2018-07-13T18:14:52.268Z,58.77
2018-07-13T18:17:21.168Z,58.93
2018-07-13T18:19:50.135Z,59.24
2018-07-13T18:22:19.069Z,59.88
2018-07-13T18:24:48.015Z,59.69
2018-07-13T18:27:16.983Z,59.63
2018-07-13T18:29:46.012Z,60.22
2018-07-13T18:32:14.925Z,60.90
2018-07-13T18:34:48.704Z,61.17
2018-07-13T18:37:17.609Z,61.32
2018-07-13T18:39:46.592Z,61.46
2018-07-13T18:42:21.825Z,61.80
2018-07-13T18:44:51.041Z,62.22
2018-07-13T18:47:20.018Z,62.79
2018-07-13T18:49:48.988Z,63.61
2018-07-13T18:52:17.917Z,63.99
2018-07-13T18:55:49.969Z,63.71
2018-07-13T18:58:18.865Z,63.32
2018-07-13T19:00:47.783Z,63.72
2018-07-13T19:03:16.751Z,63.70
2018-07-13T19:05:45.821Z,64.11
2018-07-13T19:08:14.785Z,63.74
2018-07-13T19:10:43.748Z,63.45
2018-07-13T19:13:12.803Z,63.90
2018-07-13T19:15:45.283Z,64.16
2018-07-13T19:18:14.141Z,63.88
2018-07-13T19:20:43.114Z,63.24
2018-07-13T19:23:12.142Z,63.97
2018-07-13T19:25:41.040Z,64.20
2018-07-13T19:28:10.183Z,64.26
2018-07-13T19:30:40.927Z,65.48
2018-07-13T19:33:09.813Z,65.82
2018-07-13T19:35:38.725Z,66.65
2018-07-13T19:38:07.660Z,66.64
2018-07-13T19:40:36.585Z,66.85
2018-07-13T19:43:05.668Z,66.90
2018-07-13T19:45:34.672Z,66.22
2018-07-13T19:48:03.614Z,66.78
2018-07-13T19:50:32.625Z,66.83
2018-07-13T19:53:01.850Z,67.43
2018-07-13T19:55:30.856Z,67.75
2018-07-13T19:57:59.784Z,68.04
2018-07-13T20:00:28.886Z,68.96
2018-07-13T20:02:57.809Z,68.28
2018-07-13T20:05:26.844Z,68.41
2018-07-13T20:07:55.811Z,68.11
2018-07-13T20:10:24.714Z,67.86
2018-07-13T20:12:53.704Z,68.04
2018-07-13T20:15:22.661Z,67.83
2018-07-13T20:17:51.629Z,67.96
2018-07-13T20:20:20.564Z,68.55
2018-07-13T20:22:49.518Z,68.61
2018-07-13T20:25:18.455Z,68.60
2018-07-13T20:27:47.458Z,69.22
2018-07-13T20:30:16.528Z,69.10
2018-07-13T20:32:45.460Z,69.05
2018-07-13T20:35:14.405Z,69.16
2018-07-13T20:37:43.337Z,69.26
2018-07-13T20:40:12.346Z,69.05
2018-07-13T20:42:41.290Z,69.09
2018-07-13T20:45:10.292Z,68.77
2018-07-13T20:47:39.255Z,69.00
2018-07-13T20:50:08.135Z,68.69
2018-07-13T20:52:37.132Z,69.48
2018-07-13T20:55:06.020Z,69.39
2018-07-13T20:57:34.909Z,69.08
2018-07-13T21:00:04.170Z,68.73
2018-07-13T21:02:34.168Z,69.47
2018-07-13T21:05:03.124Z,69.61
2018-07-13T21:07:32.073Z,69.24
2018-07-13T21:10:01.022Z,69.23
2018-07-13T21:12:30.023Z,68.95
2018-07-13T21:14:58.945Z,68.72
2018-07-13T21:17:27.855Z,68.55
2018-07-13T21:19:56.827Z,68.94
2018-07-13T21:22:25.679Z,69.10
2018-07-13T21:24:54.595Z,69.45
2018-07-13T21:27:23.601Z,69.87
2018-07-13T21:29:52.789Z,70.06
2018-07-13T21:32:21.709Z,69.79
2018-07-13T21:34:50.704Z,69.68
2018-07-13T21:37:19.612Z,70.06
2018-07-13T21:39:48.524Z,70.39
2018-07-13T21:42:17.541Z,70.47
2018-07-13T21:44:46.441Z,70.25
2018-07-13T21:47:15.398Z,70.57
2018-07-13T21:49:44.329Z,70.52
2018-07-13T21:52:13.384Z,70.07
2018-07-13T21:54:42.170Z,70.01
2018-07-13T21:57:11.102Z,70.02
2018-07-13T21:59:40.223Z,69.98
2018-07-13T22:02:09.210Z,70.29
2018-07-13T22:04:38.134Z,69.78
2018-07-13T22:07:07.052Z,69.96
2018-07-13T22:09:35.972Z,69.68
2018-07-13T22:12:04.976Z,69.44
2018-07-13T22:14:33.900Z,70.23
2018-07-13T22:17:02.934Z,69.53
2018-07-13T22:19:31.886Z,69.27
2018-07-13T22:22:00.810Z,69.15
2018-07-13T22:24:29.736Z,69.00
2018-07-13T22:26:58.659Z,69.17
2018-07-13T22:29:27.641Z,69.12
2018-07-13T22:31:56.524Z,69.97
2018-07-13T22:34:25.428Z,69.52
2018-07-13T22:36:54.324Z,69.12
2018-07-13T22:39:23.229Z,69.63
2018-07-13T22:41:52.135Z,70.46
2018-07-13T22:44:21.222Z,70.06
2018-07-13T22:46:50.100Z,70.46
2018-07-13T22:49:19.038Z,70.93
2018-07-13T22:51:47.936Z,70.69
2018-07-13T22:54:16.895Z,71.13
2018-07-13T22:56:45.828Z,71.46
2018-07-13T22:59:14.791Z,71.50
2018-07-13T23:01:43.908Z,71.76
2018-07-13T23:04:12.899Z,71.00
2018-07-13T23:06:41.828Z,71.70
2018-07-13T23:09:10.777Z,71.10
2018-07-13T23:11:39.725Z,71.56
2018-07-13T23:14:08.656Z,71.29
2018-07-13T23:16:37.609Z,70.93
2018-07-13T23:19:06.840Z,71.05
2018-07-13T23:21:35.775Z,71.02
2018-07-13T23:24:04.694Z,70.83
2018-07-13T23:26:33.597Z,71.54
2018-07-13T23:29:02.587Z,71.33
2018-07-13T23:31:31.485Z,70.83
2018-07-13T23:34:00.471Z,70.45
2018-07-13T23:36:29.437Z,70.88
2018-07-13T23:38:58.331Z,70.32
2018-07-13T23:41:27.249Z,70.40
2018-07-13T23:43:56.182Z,70.63
2018-07-13T23:46:25.111Z,70.21
2018-07-13T23:48:54.027Z,69.84
2018-07-13T23:51:23.022Z,69.64
2018-07-13T23:53:52.048Z,69.34
2018-07-13T23:56:21.546Z,69.55
2018-07-13T23:58:50.522Z,69.30
